createdAt,value
2024-02-28T00:01:34.176Z,17.68
2024-02-28T00:04:00.682Z,17.66
2024-02-28T00:06:27.194Z,16.69
2024-02-28T00:08:53.660Z,16.73
2024-02-28T00:11:20.104Z,17.34
2024-02-28T00:13:46.575Z,17.96
2024-02-28T00:16:13.049Z,17.32
2024-02-28T00:18:39.574Z,17.49
2024-02-28T00:21:06.070Z,18.09
2024-02-28T00:23:32.532Z,17.98
2024-02-28T00:25:58.965Z,17.63
2024-02-28T00:28:25.429Z,18.28
2024-02-28T00:30:51.913Z,17.61
2024-02-28T00:33:18.415Z,17.28
2024-02-28T00:35:44.885Z,16.55
2024-02-28T00:38:11.319Z,17.14
2024-02-28T00:40:37.767Z,16.63
2024-02-28T00:43:04.252Z,16.21
2024-02-28T00:45:30.841Z,16.24
2024-02-28T00:47:57.534Z,16.00
2024-02-28T00:50:24.119Z,16.42
2024-02-28T00:52:50.605Z,15.67
2024-02-28T00:55:17.117Z,16.14
2024-02-28T00:57:43.872Z,16.90
2024-02-28T01:00:10.468Z,17.10
2024-02-28T01:02:36.962Z,16.36
2024-02-28T01:05:03.509Z,16.78
2024-02-28T01:07:30.008Z,16.91
2024-02-28T01:09:56.519Z,16.41
2024-02-28T01:12:23.090Z,16.68
2024-02-28T01:14:49.710Z,16.87
2024-02-28T01:17:16.282Z,17.46
2024-02-28T01:19:42.798Z,17.64
2024-02-28T01:22:09.264Z,17.72
2024-02-28T01:24:35.943Z,17.36
2024-02-28T01:27:02.463Z,17.77
2024-02-28T01:29:28.898Z,18.26
2024-02-28T01:31:55.404Z,17.84
2024-02-28T01:34:21.885Z,17.98
2024-02-28T01:36:48.481Z,18.31
2024-02-28T01:39:14.982Z,18.53
2024-02-28T01:41:41.444Z,18.85
2024-02-28T01:44:07.904Z,19.13
2024-02-28T01:46:34.364Z,18.78
2024-02-28T01:49:00.880Z,19.15
2024-02-28T01:51:27.355Z,19.42
2024-02-28T01:53:53.945Z,20.14
2024-02-28T01:56:20.412Z,19.80
2024-02-28T01:58:46.947Z,19.31
2024-02-28T02:01:13.539Z,19.57
2024-02-28T02:03:40.123Z,19.22
2024-02-28T02:06:06.603Z,19.43
2024-02-28T02:08:33.287Z,19.47
2024-02-28T02:10:59.837Z,19.03
2024-02-28T02:13:26.295Z,20.12
2024-02-28T02:15:52.789Z,19.63
2024-02-28T02:18:19.373Z,19.85
2024-02-28T02:20:45.903Z,19.70
2024-02-28T02:23:12.383Z,19.81
2024-02-28T02:25:38.845Z,19.80
2024-02-28T02:28:05.313Z,19.83
2024-02-28T02:30:31.879Z,19.61
2024-02-28T02:32:58.447Z,19.72
2024-02-28T02:35:24.933Z,20.00
2024-02-28T02:37:51.589Z,19.91
2024-02-28T02:40:18.083Z,19.52
2024-02-28T02:42:44.799Z,20.20
2024-02-28T02:45:11.318Z,20.23
2024-02-28T02:47:38.013Z,20.12
2024-02-28T02:50:04.480Z,20.70
2024-02-28T02:52:30.925Z,20.67
2024-02-28T02:54:57.449Z,20.68
2024-02-28T02:57:23.958Z,19.34
2024-02-28T02:59:50.455Z,19.81
2024-02-28T03:02:16.926Z,20.08
2024-02-28T03:04:43.392Z,19.98
2024-02-28T03:07:09.984Z,20.28
2024-02-28T03:09:36.521Z,19.88
2024-02-28T03:12:03.036Z,19.59
2024-02-28T03:14:29.514Z,19.34
2024-02-28T03:16:56.016Z,19.55
2024-02-28T03:19:22.479Z,19.14
2024-02-28T03:21:49.084Z,18.45
2024-02-28T03:24:16.912Z,18.60
2024-02-28T03:26:43.415Z,17.79
2024-02-28T03:29:10.059Z,18.38
2024-02-28T03:31:36.515Z,17.86
2024-02-28T03:34:03.049Z,17.57
2024-02-28T03:36:29.624Z,18.03
2024-02-28T03:38:56.135Z,18.09
2024-02-28T03:41:22.651Z,17.79
2024-02-28T03:43:49.190Z,18.59
2024-02-28T03:46:15.704Z,17.41
2024-02-28T03:48:42.278Z,17.79
2024-02-28T03:51:08.766Z,17.39
2024-02-28T03:53:35.262Z,17.79
2024-02-28T03:56:01.767Z,17.69
2024-02-28T03:58:28.261Z,18.23
2024-02-28T04:00:54.781Z,17.74
2024-02-28T04:03:21.321Z,17.48
2024-02-28T04:05:47.772Z,18.44
2024-02-28T04:08:14.308Z,17.45
2024-02-28T04:10:40.895Z,17.35
2024-02-28T04:13:07.452Z,17.47
2024-02-28T04:15:34.067Z,17.98
2024-02-28T04:18:00.821Z,18.54
2024-02-28T04:20:27.282Z,18.25
2024-02-28T04:22:53.775Z,17.73
2024-02-28T04:25:20.234Z,17.82
2024-02-28T04:27:46.782Z,18.61
2024-02-28T04:30:13.360Z,18.17
2024-02-28T04:32:39.993Z,17.44
2024-02-28T04:35:06.487Z,18.11
2024-02-28T04:37:32.928Z,17.86
2024-02-28T04:39:59.416Z,18.17
2024-02-28T04:42:26.061Z,18.64
2024-02-28T04:44:52.568Z,18.12
2024-02-28T04:47:23.586Z,17.98
2024-02-28T04:49:53.693Z,19.84
2024-02-28T04:52:24.500Z,17.98
2024-02-28T04:54:51.244Z,19.31
2024-02-28T04:57:17.840Z,18.44
2024-02-28T04:59:44.326Z,18.50
2024-02-28T05:02:10.822Z,18.90
2024-02-28T05:04:37.285Z,18.11
2024-02-28T05:07:03.820Z,18.46
2024-02-28T05:09:30.410Z,18.40
2024-02-28T05:11:56.896Z,18.03
2024-02-28T05:14:23.340Z,18.51
2024-02-28T05:16:49.811Z,17.79
2024-02-28T05:19:16.266Z,17.88
2024-02-28T05:21:42.828Z,17.53
2024-02-28T05:24:09.332Z,17.86
2024-02-28T05:26:35.795Z,17.69
2024-02-28T05:29:02.266Z,16.60
2024-02-28T05:31:28.724Z,17.33
2024-02-28T05:33:55.308Z,17.63
2024-02-28T05:36:21.867Z,17.80
2024-02-28T05:38:48.389Z,17.03
2024-02-28T05:41:14.934Z,17.62
2024-02-28T05:43:41.391Z,18.21
2024-02-28T05:46:07.897Z,18.56
2024-02-28T05:48:34.521Z,18.42
2024-02-28T05:51:01.018Z,18.16
2024-02-28T05:53:27.512Z,18.03
2024-02-28T05:55:53.972Z,18.36
2024-02-28T05:58:20.453Z,19.16
2024-02-28T06:00:46.962Z,18.66
2024-02-28T06:03:13.446Z,18.75
2024-02-28T06:05:42.463Z,18.61
2024-02-28T06:08:10.113Z,18.43
2024-02-28T06:10:36.590Z,18.38
2024-02-28T06:13:03.095Z,18.98
2024-02-28T06:15:29.660Z,18.81
2024-02-28T06:17:56.158Z,18.83
2024-02-28T06:20:22.669Z,18.78
2024-02-28T06:22:49.180Z,18.68
2024-02-28T06:25:15.630Z,18.94
2024-02-28T06:27:42.129Z,18.96
2024-02-28T06:30:08.596Z,20.14
2024-02-28T06:32:35.067Z,18.70
2024-02-28T06:35:01.637Z,19.04
2024-02-28T06:37:28.110Z,19.09
2024-02-28T06:39:54.630Z,19.05
2024-02-28T06:42:21.211Z,19.25
2024-02-28T06:44:47.653Z,19.20
2024-02-28T06:47:14.109Z,19.03
2024-02-28T06:49:40.611Z,19.37
2024-02-28T06:52:07.153Z,18.81
2024-02-28T06:54:33.738Z,19.66
2024-02-28T06:57:00.281Z,20.13
2024-02-28T06:59:26.792Z,18.97
2024-02-28T07:01:53.299Z,18.79
2024-02-28T07:04:19.818Z,18.68
2024-02-28T07:06:46.340Z,18.00
2024-02-28T07:09:12.836Z,18.66
2024-02-28T07:11:39.281Z,19.16
2024-02-28T07:14:05.724Z,18.79
2024-02-28T07:16:32.185Z,19.73
2024-02-28T07:18:59.069Z,18.74
2024-02-28T07:21:25.564Z,19.00
2024-02-28T07:23:52.048Z,18.45
2024-02-28T07:26:26.486Z,19.38
2024-02-28T07:28:53.989Z,18.44
2024-02-28T07:31:20.560Z,17.86
2024-02-28T07:33:47.061Z,18.32
2024-02-28T07:36:13.541Z,18.36
2024-02-28T07:38:40.057Z,18.14
2024-02-28T07:41:06.550Z,17.88
2024-02-28T07:43:33.042Z,17.96
2024-02-28T07:45:59.501Z,17.87
2024-02-28T07:48:26.287Z,17.97
2024-02-28T07:50:52.857Z,18.48
2024-02-28T07:53:19.542Z,17.83
2024-02-28T07:55:46.222Z,18.15
2024-02-28T07:58:12.742Z,18.64
2024-02-28T08:00:39.423Z,17.83
2024-02-28T08:03:06.121Z,17.37
2024-02-28T08:05:32.744Z,17.88
2024-02-28T08:07:59.271Z,17.33
2024-02-28T08:10:25.772Z,18.57
2024-02-28T08:12:52.488Z,17.98
2024-02-28T08:15:19.166Z,18.67
2024-02-28T08:17:45.701Z,18.21
2024-02-28T08:20:12.317Z,16.75
2024-02-28T08:22:39.060Z,17.19
2024-02-28T08:25:05.551Z,17.18
2024-02-28T08:27:33.208Z,17.41
2024-02-28T08:29:59.880Z,16.33
2024-02-28T08:32:26.353Z,17.07
2024-02-28T08:34:52.841Z,16.87
2024-02-28T08:37:19.389Z,16.74
2024-02-28T08:39:45.907Z,17.57
2024-02-28T08:42:12.425Z,20.30
2024-02-28T08:44:38.906Z,18.91
2024-02-28T08:47:05.404Z,19.28
2024-02-28T08:49:31.945Z,17.56
2024-02-28T08:51:58.491Z,16.63
2024-02-28T08:54:25.119Z,16.88
2024-02-28T08:56:56.761Z,17.19
2024-02-28T08:59:26.921Z,17.16
2024-02-28T09:01:53.416Z,16.99
2024-02-28T09:04:19.909Z,17.12
2024-02-28T09:06:46.404Z,16.33
2024-02-28T09:09:13.000Z,16.44
2024-02-28T09:11:39.543Z,15.85
2024-02-28T09:14:05.987Z,16.65
2024-02-28T09:16:32.610Z,15.92
2024-02-28T09:18:59.156Z,16.20
2024-02-28T09:21:25.706Z,15.91
2024-02-28T09:23:52.186Z,15.91
2024-02-28T09:26:18.629Z,16.66
2024-02-28T09:28:45.092Z,15.75
2024-02-28T09:31:11.624Z,15.85
2024-02-28T09:33:38.250Z,16.37
2024-02-28T09:36:04.738Z,16.82
2024-02-28T09:38:31.236Z,16.14
2024-02-28T09:40:57.693Z,15.64
2024-02-28T09:43:24.273Z,15.99
2024-02-28T09:45:50.856Z,15.92
2024-02-28T09:48:17.827Z,16.74
2024-02-28T09:50:44.493Z,15.70
2024-02-28T09:53:11.491Z,15.50
2024-02-28T09:55:38.303Z,15.74
2024-02-28T09:58:05.071Z,15.89
2024-02-28T10:00:31.675Z,15.79
2024-02-28T10:02:58.128Z,16.18
2024-02-28T10:05:24.606Z,15.99
2024-02-28T10:07:51.090Z,16.34
2024-02-28T10:10:17.550Z,16.42
2024-02-28T10:12:44.087Z,16.35
2024-02-28T10:15:10.556Z,15.08
2024-02-28T10:17:37.038Z,15.99
2024-02-28T10:20:03.633Z,16.28
2024-02-28T10:22:30.115Z,15.41
2024-02-28T10:24:56.626Z,15.78
2024-02-28T10:27:23.154Z,15.85
2024-02-28T10:29:49.703Z,15.86
2024-02-28T10:32:16.136Z,15.92
2024-02-28T10:34:42.687Z,15.90
2024-02-28T10:37:09.152Z,15.92
2024-02-28T10:39:35.738Z,16.21
2024-02-28T10:42:02.382Z,15.72
2024-02-28T10:44:28.972Z,16.34
2024-02-28T10:46:55.471Z,15.98
2024-02-28T10:49:21.959Z,16.31
2024-02-28T10:51:48.499Z,17.81
2024-02-28T10:54:15.550Z,16.12
2024-02-28T10:56:42.697Z,16.17
2024-02-28T10:59:11.654Z,16.52
2024-02-28T11:01:38.777Z,16.90
2024-02-28T11:04:05.391Z,17.10
2024-02-28T11:06:32.018Z,16.55
2024-02-28T11:08:58.558Z,16.10
2024-02-28T11:11:25.175Z,16.22
2024-02-28T11:13:51.683Z,15.43
2024-02-28T11:16:18.174Z,16.20
2024-02-28T11:18:44.893Z,17.75
2024-02-28T11:21:12.693Z,16.59
2024-02-28T11:23:39.336Z,16.93
2024-02-28T11:26:05.917Z,15.61
2024-02-28T11:28:32.450Z,15.50
2024-02-28T11:30:58.977Z,16.04
2024-02-28T11:33:25.590Z,15.84
2024-02-28T11:35:52.158Z,16.13
2024-02-28T11:38:18.600Z,15.79
2024-02-28T11:40:45.226Z,15.76
2024-02-28T11:43:11.787Z,15.70
2024-02-28T11:45:38.315Z,15.70
2024-02-28T11:48:04.858Z,15.72
2024-02-28T11:50:31.413Z,15.49
2024-02-28T11:52:57.933Z,15.83
2024-02-28T11:55:24.378Z,15.75
2024-02-28T11:57:51.051Z,16.04
2024-02-28T12:00:17.543Z,15.37
2024-02-28T12:02:44.033Z,15.80
2024-02-28T12:05:10.625Z,16.03
2024-02-28T12:07:37.104Z,15.57
2024-02-28T12:10:03.687Z,15.66
2024-02-28T12:12:30.202Z,15.82
2024-02-28T12:14:56.709Z,16.20
2024-02-28T12:17:23.249Z,15.41
2024-02-28T12:19:51.908Z,15.64
2024-02-28T12:22:19.843Z,15.30
2024-02-28T12:24:46.409Z,15.37
2024-02-28T12:27:12.893Z,15.02
2024-02-28T12:29:39.366Z,15.16
2024-02-28T12:32:05.809Z,15.88
2024-02-28T12:34:32.466Z,14.86
2024-02-28T12:36:59.012Z,15.62
2024-02-28T12:39:25.484Z,15.94
2024-02-28T12:41:52.087Z,15.65
2024-02-28T12:44:18.644Z,15.93
2024-02-28T12:46:45.268Z,15.56
2024-02-28T12:49:11.830Z,15.80
2024-02-28T12:51:38.538Z,15.32
2024-02-28T12:54:05.061Z,15.89
2024-02-28T12:56:31.543Z,15.48
2024-02-28T12:58:58.027Z,15.54
2024-02-28T13:01:24.621Z,15.31
2024-02-28T13:03:51.124Z,16.17
2024-02-28T13:06:17.620Z,15.13
2024-02-28T13:08:44.090Z,14.98
2024-02-28T13:11:10.530Z,14.75
2024-02-28T13:13:37.015Z,14.52
2024-02-28T13:16:03.510Z,14.79
2024-02-28T13:18:30.158Z,14.87
2024-02-28T13:20:56.689Z,14.56
2024-02-28T13:23:23.179Z,14.42
2024-02-28T13:25:49.656Z,14.30
2024-02-28T13:28:16.114Z,13.23
2024-02-28T13:30:42.638Z,12.69
2024-02-28T13:33:09.200Z,13.64
2024-02-28T13:35:35.730Z,12.73
2024-02-28T13:38:02.180Z,12.98
2024-02-28T13:40:28.799Z,12.87
2024-02-28T13:42:55.350Z,13.18
2024-02-28T13:45:21.963Z,13.22
2024-02-28T13:47:48.455Z,13.55
2024-02-28T13:50:14.989Z,13.14
2024-02-28T13:52:41.491Z,13.53
2024-02-28T13:55:08.327Z,13.57
2024-02-28T13:57:34.894Z,13.50
2024-02-28T14:00:01.571Z,13.58
2024-02-28T14:02:28.332Z,13.78
2024-02-28T14:04:54.924Z,13.23
2024-02-28T14:07:21.373Z,13.36
2024-02-28T14:09:48.018Z,13.17
2024-02-28T14:12:14.525Z,12.64
2024-02-28T14:14:41.068Z,12.06
2024-02-28T14:17:07.578Z,12.20
2024-02-28T14:19:34.060Z,11.99
2024-02-28T14:22:00.588Z,12.00
2024-02-28T14:24:27.177Z,12.88
2024-02-28T14:26:53.696Z,12.80
2024-02-28T14:29:20.239Z,12.86
2024-02-28T14:31:46.669Z,12.64
2024-02-28T14:34:13.225Z,12.70
2024-02-28T14:36:39.699Z,13.01
2024-02-28T14:39:06.184Z,12.91
2024-02-28T14:41:32.610Z,12.68
2024-02-28T14:43:59.099Z,13.09
2024-02-28T14:46:25.548Z,13.66
2024-02-28T14:48:52.037Z,12.88
2024-02-28T14:51:18.508Z,12.77
2024-02-28T14:53:44.964Z,12.20
2024-02-28T14:56:11.486Z,12.07
2024-02-28T14:58:37.989Z,11.77
2024-02-28T15:01:04.547Z,12.14
2024-02-28T15:03:31.028Z,11.88
2024-02-28T15:05:57.480Z,11.39
2024-02-28T15:08:23.955Z,11.70
2024-02-28T15:10:50.442Z,11.08
2024-02-28T15:13:16.943Z,11.43
2024-02-28T15:15:43.690Z,11.81
2024-02-28T15:18:10.334Z,11.74
2024-02-28T15:20:36.793Z,11.89
2024-02-28T15:23:03.273Z,12.25
2024-02-28T15:25:29.711Z,11.70
2024-02-28T15:27:56.188Z,12.78
2024-02-28T15:30:22.631Z,12.19
2024-02-28T15:32:49.233Z,12.59
2024-02-28T15:35:15.891Z,12.97
2024-02-28T15:37:42.412Z,12.61
2024-02-28T15:40:08.909Z,12.81
2024-02-28T15:42:35.576Z,12.85
2024-02-28T15:45:02.112Z,12.86
2024-02-28T15:47:30.183Z,12.97
2024-02-28T15:49:58.077Z,13.89
2024-02-28T15:52:24.550Z,12.75
2024-02-28T15:54:51.022Z,13.11
2024-02-28T15:57:17.530Z,12.66
2024-02-28T15:59:43.967Z,12.71
2024-02-28T16:02:10.459Z,13.11
2024-02-28T16:04:36.888Z,13.32
2024-02-28T16:07:03.403Z,13.12
2024-02-28T16:09:29.904Z,12.51
2024-02-28T16:11:56.356Z,13.31
2024-02-28T16:14:22.849Z,12.58
2024-02-28T16:16:49.337Z,12.90
2024-02-28T16:19:22.549Z,12.73
2024-02-28T16:21:53.381Z,12.91
2024-02-28T16:24:19.944Z,13.07
2024-02-28T16:26:46.437Z,13.70
2024-02-28T16:29:13.014Z,13.83
2024-02-28T16:31:39.474Z,13.59
2024-02-28T16:34:06.050Z,14.04
2024-02-28T16:36:32.702Z,13.79
2024-02-28T16:38:59.378Z,14.17
2024-02-28T16:41:25.911Z,14.03
2024-02-28T16:43:52.411Z,13.93
2024-02-28T16:46:18.923Z,14.01
2024-02-28T16:48:45.505Z,14.40
2024-02-28T16:51:11.978Z,14.44
2024-02-28T16:53:38.427Z,14.65
2024-02-28T16:56:04.991Z,15.23
2024-02-28T16:58:31.513Z,14.50
2024-02-28T17:00:58.206Z,15.10
2024-02-28T17:03:24.813Z,15.45
2024-02-28T17:05:51.259Z,14.94
2024-02-28T17:08:17.800Z,15.58
2024-02-28T17:10:44.297Z,15.55
2024-02-28T17:13:13.887Z,15.35
2024-02-28T17:15:40.868Z,14.88
2024-02-28T17:18:07.439Z,14.74
2024-02-28T17:20:33.960Z,14.78
2024-02-28T17:23:00.424Z,14.53
2024-02-28T17:25:26.956Z,14.70
2024-02-28T17:27:53.530Z,14.94
2024-02-28T17:30:20.174Z,15.75
2024-02-28T17:32:46.670Z,15.94
2024-02-28T17:35:13.213Z,16.05
2024-02-28T17:37:39.652Z,16.41
2024-02-28T17:40:06.100Z,16.62
2024-02-28T17:42:32.658Z,16.50
2024-02-28T17:44:59.262Z,15.58
2024-02-28T17:47:25.721Z,15.69
2024-02-28T17:49:52.182Z,16.44
2024-02-28T17:52:18.792Z,15.67
2024-02-28T17:54:45.284Z,14.95
2024-02-28T17:57:11.798Z,15.47
2024-02-28T17:59:38.264Z,15.92
2024-02-28T18:02:04.708Z,15.99
2024-02-28T18:04:31.148Z,15.97
2024-02-28T18:06:57.750Z,22.31
2024-02-28T18:09:25.640Z,16.29
2024-02-28T18:11:53.369Z,15.00
2024-02-28T18:14:19.880Z,15.35
2024-02-28T18:16:46.380Z,14.92
2024-02-28T18:19:12.889Z,15.06
2024-02-28T18:21:39.407Z,15.01
2024-02-28T18:24:05.884Z,14.07
2024-02-28T18:26:32.324Z,13.95
2024-02-28T18:28:58.766Z,14.71
2024-02-28T18:31:25.246Z,14.46
2024-02-28T18:33:51.780Z,14.23
2024-02-28T18:36:18.262Z,13.91
2024-02-28T18:38:44.709Z,13.69
2024-02-28T18:41:11.160Z,14.06
2024-02-28T18:43:37.624Z,14.98
2024-02-28T18:46:04.200Z,13.79
2024-02-28T18:48:30.787Z,14.04
2024-02-28T18:50:57.375Z,13.99
2024-02-28T18:53:23.839Z,14.13
2024-02-28T18:55:50.345Z,13.86
2024-02-28T18:58:16.793Z,13.86
2024-02-28T19:00:43.368Z,15.01
2024-02-28T19:03:09.843Z,15.07
2024-02-28T19:05:36.401Z,15.21
2024-02-28T19:08:02.918Z,14.98
2024-02-28T19:10:29.387Z,15.24
2024-02-28T19:12:55.898Z,14.85
2024-02-28T19:15:22.495Z,14.01
2024-02-28T19:17:49.024Z,14.40
2024-02-28T19:20:15.603Z,14.38
2024-02-28T19:22:42.073Z,15.16
2024-02-28T19:25:08.724Z,15.69
2024-02-28T19:27:35.279Z,15.35
2024-02-28T19:30:01.844Z,15.40
2024-02-28T19:32:28.385Z,15.61
2024-02-28T19:34:54.898Z,15.31
2024-02-28T19:37:21.491Z,14.54
2024-02-28T19:39:48.066Z,15.38
2024-02-28T19:42:14.567Z,15.28
2024-02-28T19:44:41.076Z,16.59
2024-02-28T19:47:10.379Z,15.43
2024-02-28T19:49:36.848Z,15.45
2024-02-28T19:52:03.443Z,15.46
2024-02-28T19:54:29.954Z,15.86
2024-02-28T19:56:56.564Z,16.14
2024-02-28T19:59:23.097Z,16.69
2024-02-28T20:01:49.752Z,16.39
2024-02-28T20:04:16.398Z,17.21
2024-02-28T20:06:43.348Z,17.09
2024-02-28T20:09:09.983Z,16.10
2024-02-28T20:11:36.819Z,16.58
2024-02-28T20:14:03.333Z,17.05
2024-02-28T20:16:29.806Z,16.98
2024-02-28T20:18:56.324Z,16.82
2024-02-28T20:21:28.020Z,17.77
2024-02-28T20:23:57.520Z,16.82
2024-02-28T20:26:24.014Z,17.76
2024-02-28T20:28:50.477Z,17.44
2024-02-28T20:31:17.106Z,17.59
2024-02-28T20:33:43.569Z,17.58
2024-02-28T20:36:10.027Z,17.46
2024-02-28T20:38:36.606Z,17.82
2024-02-28T20:41:03.218Z,19.22
2024-02-28T20:43:29.659Z,19.68
2024-02-28T20:45:56.175Z,18.05
2024-02-28T20:48:22.758Z,17.70
2024-02-28T20:50:49.313Z,18.48
2024-02-28T20:53:15.941Z,18.22
2024-02-28T20:55:42.456Z,18.16
2024-02-28T20:58:08.987Z,18.03
2024-02-28T21:00:35.555Z,18.86
2024-02-28T21:03:02.064Z,19.12
2024-02-28T21:05:28.556Z,18.51
2024-02-28T21:07:55.201Z,19.17
2024-02-28T21:10:21.959Z,18.89
2024-02-28T21:12:48.475Z,18.25
2024-02-28T21:15:15.037Z,19.28
2024-02-28T21:17:41.529Z,18.77
2024-02-28T21:20:08.129Z,18.07
2024-02-28T21:22:34.751Z,18.57
2024-02-28T21:25:01.508Z,18.40
2024-02-28T21:27:28.167Z,20.63
2024-02-28T21:29:54.836Z,19.40
2024-02-28T21:32:21.331Z,19.84
2024-02-28T21:34:48.157Z,19.01
2024-02-28T21:37:14.778Z,19.68
2024-02-28T21:39:41.282Z,19.64
2024-02-28T21:42:07.750Z,19.56
2024-02-28T21:44:34.365Z,19.89
2024-02-28T21:47:00.887Z,19.85
2024-02-28T21:49:27.405Z,20.25
2024-02-28T21:51:54.012Z,19.14
2024-02-28T21:54:20.709Z,20.28
2024-02-28T21:56:47.161Z,20.78
2024-02-28T21:59:13.690Z,20.36
2024-02-28T22:01:40.231Z,19.82
2024-02-28T22:04:06.845Z,20.22
2024-02-28T22:06:33.501Z,20.97
2024-02-28T22:09:00.061Z,20.81
2024-02-28T22:11:26.678Z,19.73
2024-02-28T22:13:53.155Z,20.28
2024-02-28T22:16:19.634Z,20.85
2024-02-28T22:18:46.251Z,20.45
2024-02-28T22:21:12.859Z,20.90
2024-02-28T22:23:39.301Z,20.58
2024-02-28T22:26:05.770Z,20.88
2024-02-28T22:28:32.210Z,21.44
2024-02-28T22:30:58.762Z,21.09
2024-02-28T22:33:25.240Z,21.10
2024-02-28T22:35:51.695Z,21.19
2024-02-28T22:38:18.146Z,21.03
2024-02-28T22:40:44.611Z,20.91
2024-02-28T22:43:11.130Z,21.89
2024-02-28T22:45:37.706Z,21.25
2024-02-28T22:48:04.213Z,21.74
2024-02-28T22:50:30.729Z,21.51
2024-02-28T22:52:57.185Z,21.77
2024-02-28T22:55:23.806Z,22.06
2024-02-28T22:57:50.273Z,21.68
2024-02-28T23:00:16.806Z,21.49
2024-02-28T23:02:43.298Z,21.91
2024-02-28T23:05:09.746Z,21.27
2024-02-28T23:07:36.274Z,22.15
2024-02-28T23:10:02.806Z,22.37
2024-02-28T23:12:29.311Z,21.72
2024-02-28T23:14:55.883Z,21.60
2024-02-28T23:17:22.420Z,22.26
2024-02-28T23:19:50.327Z,21.69
2024-02-28T23:22:16.981Z,21.56
2024-02-28T23:24:43.517Z,21.97
2024-02-28T23:27:10.075Z,22.59
2024-02-28T23:29:36.568Z,22.62
2024-02-28T23:32:03.019Z,22.86
2024-02-28T23:34:29.533Z,22.04
2024-02-28T23:36:56.006Z,22.34
2024-02-28T23:39:22.486Z,22.57
2024-02-28T23:41:48.936Z,22.04
2024-02-28T23:44:15.413Z,22.60
2024-02-28T23:46:41.860Z,22.12
2024-02-28T23:49:08.373Z,21.95
2024-02-28T23:51:34.979Z,22.20
2024-02-28T23:54:01.470Z,22.68
2024-02-28T23:56:27.920Z,21.73
2024-02-28T23:58:54.366Z,21.81
